createdAt,value
2023-02-27T00:01:10.509Z,18.23
2023-02-27T00:03:43.044Z,13.00
2023-02-27T00:06:15.013Z,10.93
2023-02-27T00:08:47.115Z,15.52
2023-02-27T00:11:22.153Z,15.38
2023-02-27T00:13:54.226Z,11.80
2023-02-27T00:16:26.656Z,15.55
2023-02-27T00:19:01.398Z,11.48
2023-02-27T00:21:35.849Z,13.07
2023-02-27T00:24:09.808Z,11.57
2023-02-27T00:26:45.064Z,21.67
2023-02-27T00:29:17.793Z,10.50
2023-02-27T00:31:50.003Z,11.98
2023-02-27T00:34:22.159Z,16.38
2023-02-27T00:36:54.137Z,15.02
2023-02-27T00:39:26.113Z,12.48
2023-02-27T00:41:58.101Z,11.45
2023-02-27T00:44:30.078Z,12.25
2023-02-27T00:47:02.119Z,11.70
2023-02-27T00:49:34.201Z,17.92
2023-02-27T00:52:06.285Z,19.08
2023-02-27T00:54:38.407Z,17.63
2023-02-27T00:57:10.393Z,18.05
2023-02-27T00:59:43.867Z,13.10
2023-02-27T01:02:16.037Z,10.18
2023-02-27T01:04:48.335Z,11.50
2023-02-27T01:07:20.549Z,12.68
2023-02-27T01:09:52.563Z,7.30
2023-02-27T01:12:24.786Z,14.75
2023-02-27T01:14:56.762Z,12.88
2023-02-27T01:17:28.799Z,10.73
2023-02-27T01:20:00.802Z,10.18
2023-02-27T01:22:33.481Z,13.00
2023-02-27T01:25:06.150Z,11.35
2023-02-27T01:27:38.226Z,11.88
2023-02-27T01:30:12.890Z,10.00
2023-02-27T01:32:44.916Z,14.20
2023-02-27T01:35:18.000Z,12.90
2023-02-27T01:37:50.074Z,12.93
2023-02-27T01:40:22.210Z,9.05
2023-02-27T01:42:54.299Z,11.35
2023-02-27T01:45:33.619Z,15.10
2023-02-27T01:48:15.168Z,15.38
2023-02-27T01:50:56.920Z,17.27
2023-02-27T01:53:33.634Z,14.85
2023-02-27T01:56:24.794Z,14.43
2023-02-27T01:59:05.437Z,7.00
2023-02-27T02:01:37.820Z,10.68
2023-02-27T02:04:37.204Z,13.80
2023-02-27T02:07:17.205Z,11.15
2023-02-27T02:09:54.173Z,12.40
2023-02-27T02:12:31.348Z,11.57
2023-02-27T02:15:06.276Z,9.98
2023-02-27T02:18:02.014Z,11.82
2023-02-27T02:21:08.314Z,7.03
2023-02-27T02:24:18.344Z,8.68
2023-02-27T02:27:19.174Z,15.90
2023-02-27T02:30:25.579Z,16.02
2023-02-27T02:33:22.168Z,12.73
2023-02-27T02:36:34.966Z,13.18
2023-02-27T02:39:50.188Z,17.08
2023-02-27T02:42:38.662Z,8.25
2023-02-27T02:45:52.999Z,10.70
2023-02-27T02:49:23.121Z,12.07
2023-02-27T02:52:16.173Z,9.10
2023-02-27T02:55:22.619Z,13.68
2023-02-27T02:58:08.637Z,10.50
2023-02-27T03:00:50.618Z,10.80
2023-02-27T03:03:37.417Z,11.52
2023-02-27T03:06:35.227Z,11.65
2023-02-27T03:09:37.871Z,12.43
2023-02-27T03:12:14.695Z,9.40
2023-02-27T03:15:00.869Z,8.50
2023-02-27T03:17:38.716Z,12.07
2023-02-27T03:20:29.717Z,11.35
2023-02-27T03:23:10.342Z,10.00
2023-02-27T03:25:46.422Z,8.75
2023-02-27T03:28:24.556Z,9.70
2023-02-27T03:31:10.146Z,9.45
2023-02-27T03:34:17.784Z,12.10
2023-02-27T03:37:23.878Z,15.70
2023-02-27T03:40:06.546Z,9.95
2023-02-27T03:43:02.555Z,7.82
2023-02-27T03:45:40.115Z,11.15
2023-02-27T03:48:12.411Z,14.60
2023-02-27T03:50:44.499Z,14.48
2023-02-27T03:53:43.994Z,21.13
2023-02-27T03:56:21.039Z,13.13
2023-02-27T03:58:54.300Z,15.45
2023-02-27T04:01:26.946Z,12.07
2023-02-27T04:04:07.723Z,13.43
2023-02-27T04:07:03.793Z,11.93
2023-02-27T04:09:44.525Z,15.00
2023-02-27T04:12:50.039Z,13.48
2023-02-27T04:16:00.872Z,10.88
2023-02-27T04:19:00.943Z,12.45
2023-02-27T04:22:04.944Z,13.40
2023-02-27T04:24:50.182Z,15.43
2023-02-27T04:27:45.273Z,9.55
2023-02-27T04:30:28.753Z,13.32
2023-02-27T04:33:30.620Z,14.52
2023-02-27T04:36:16.567Z,18.67
2023-02-27T04:39:19.136Z,15.20
2023-02-27T04:42:03.559Z,12.77
2023-02-27T04:44:39.262Z,19.98
2023-02-27T04:47:14.549Z,17.02
2023-02-27T04:49:55.782Z,14.68
2023-02-27T04:52:43.967Z,15.13
2023-02-27T04:55:27.333Z,16.60
2023-02-27T04:58:06.456Z,20.17
2023-02-27T05:00:42.088Z,20.00
2023-02-27T05:03:25.357Z,15.75
2023-02-27T05:06:01.029Z,20.25
2023-02-27T05:08:51.400Z,14.02
2023-02-27T05:12:21.660Z,18.13
2023-02-27T05:18:04.427Z,15.88
2023-02-27T05:20:54.367Z,13.48
2023-02-27T05:23:56.486Z,21.55
2023-02-27T05:27:30.666Z,17.40
2023-02-27T05:30:25.524Z,18.98
2023-02-27T05:33:13.190Z,19.27
2023-02-27T05:36:05.518Z,23.63
2023-02-27T05:38:44.703Z,16.55
2023-02-27T05:41:53.382Z,18.50
2023-02-27T05:44:34.325Z,17.42
2023-02-27T05:47:13.014Z,22.83
2023-02-27T05:49:53.811Z,21.45
2023-02-27T05:52:28.092Z,20.73
2023-02-27T05:55:17.032Z,20.40
2023-02-27T05:58:06.683Z,18.17
2023-02-27T06:00:52.144Z,20.77
2023-02-27T06:03:25.353Z,17.13
2023-02-27T06:06:00.944Z,25.77
2023-02-27T06:08:33.586Z,25.52
2023-02-27T06:11:08.530Z,22.45
2023-02-27T06:13:42.124Z,25.38
2023-02-27T06:16:15.681Z,18.92
2023-02-27T06:18:47.790Z,20.50
2023-02-27T06:21:19.842Z,23.48
2023-02-27T06:23:53.325Z,19.95
2023-02-27T06:26:25.814Z,20.05
2023-02-27T06:29:02.830Z,32.72
2023-02-27T06:31:34.837Z,24.48
2023-02-27T06:34:08.582Z,19.92
2023-02-27T06:36:40.777Z,16.25
2023-02-27T06:39:13.024Z,18.35
2023-02-27T06:41:45.011Z,22.48
2023-02-27T06:44:19.395Z,19.38
2023-02-27T06:46:51.486Z,20.55
2023-02-27T06:49:23.573Z,25.45
2023-02-27T06:51:56.593Z,20.58
2023-02-27T06:54:28.530Z,16.10
2023-02-27T06:57:05.200Z,14.05
2023-02-27T06:59:37.189Z,26.73
2023-02-27T07:02:17.004Z,20.17
2023-02-27T07:04:49.087Z,19.00
2023-02-27T07:07:35.931Z,19.40
2023-02-27T07:10:14.030Z,18.52
2023-02-27T07:12:46.021Z,18.00
2023-02-27T07:15:18.250Z,21.40
2023-02-27T07:17:50.253Z,19.10
2023-02-27T07:20:22.224Z,23.77
2023-02-27T07:22:54.264Z,18.17
2023-02-27T07:25:27.371Z,26.08
2023-02-27T07:27:59.386Z,14.65
2023-02-27T07:30:31.513Z,13.55
2023-02-27T07:33:03.634Z,17.27
2023-02-27T07:35:35.690Z,18.95
2023-02-27T07:38:07.676Z,14.27
2023-02-27T07:40:43.074Z,17.73
2023-02-27T07:43:15.617Z,19.00
2023-02-27T07:45:47.828Z,13.75
2023-02-27T07:48:21.454Z,18.17
2023-02-27T07:50:53.464Z,13.15
2023-02-27T07:53:26.039Z,15.13
2023-02-27T07:55:58.126Z,14.30
2023-02-27T07:58:30.151Z,14.80
2023-02-27T08:01:02.081Z,20.98
2023-02-27T08:03:34.143Z,16.23
2023-02-27T08:06:06.570Z,18.30
2023-02-27T08:08:39.112Z,14.38
2023-02-27T08:11:11.227Z,16.23
2023-02-27T08:14:00.019Z,19.70
2023-02-27T08:16:33.407Z,14.13
2023-02-27T08:19:05.646Z,15.68
2023-02-27T08:21:37.599Z,10.05
2023-02-27T08:24:09.598Z,11.27
2023-02-27T08:26:41.945Z,11.68
2023-02-27T08:29:16.100Z,14.68
2023-02-27T08:31:49.909Z,9.60
2023-02-27T08:34:22.106Z,9.70
2023-02-27T08:36:54.684Z,13.32
2023-02-27T08:39:28.731Z,17.27
2023-02-27T08:42:00.823Z,15.13
2023-02-27T08:44:33.567Z,10.73
2023-02-27T08:47:05.728Z,14.45
2023-02-27T08:49:37.771Z,8.85
2023-02-27T08:52:12.641Z,15.40
2023-02-27T08:54:48.748Z,12.05
2023-02-27T08:57:20.928Z,11.32
2023-02-27T08:59:53.223Z,14.60
2023-02-27T09:02:29.285Z,14.88
2023-02-27T09:05:01.981Z,15.63
2023-02-27T09:07:34.636Z,20.45
2023-02-27T09:10:10.865Z,18.95
2023-02-27T09:12:44.574Z,14.25
2023-02-27T09:15:16.878Z,15.70
2023-02-27T09:17:48.966Z,14.07
2023-02-27T09:20:21.059Z,15.52
2023-02-27T09:22:59.802Z,16.20
2023-02-27T09:25:36.293Z,14.18
2023-02-27T09:28:08.426Z,9.30
2023-02-27T09:30:40.721Z,9.82
2023-02-27T09:33:12.984Z,19.48
2023-02-27T09:35:45.217Z,17.67
2023-02-27T09:38:17.402Z,12.50
2023-02-27T09:40:52.967Z,13.00
2023-02-27T09:43:37.428Z,13.27
2023-02-27T09:46:18.158Z,10.95
2023-02-27T09:48:54.466Z,18.27
2023-02-27T09:51:28.479Z,7.88
2023-02-27T09:54:01.981Z,12.95
2023-02-27T09:56:49.567Z,11.80
2023-02-27T09:59:45.173Z,10.52
2023-02-27T10:06:32.695Z,8.18
2023-02-27T10:10:12.717Z,7.97
2023-02-27T10:13:33.828Z,7.13
2023-02-27T10:16:08.840Z,10.10
2023-02-27T10:18:54.400Z,9.63
2023-02-27T10:21:35.431Z,18.23
2023-02-27T10:24:27.646Z,8.13
2023-02-27T10:27:05.713Z,12.02
2023-02-27T10:29:42.184Z,9.05
2023-02-27T10:32:25.592Z,9.18
2023-02-27T10:35:21.512Z,6.50
2023-02-27T10:38:01.400Z,11.95
2023-02-27T10:40:36.662Z,10.18
2023-02-27T10:43:09.249Z,8.90
2023-02-27T10:45:42.351Z,9.23
2023-02-27T10:48:15.623Z,6.25
2023-02-27T10:50:52.450Z,5.38
2023-02-27T10:53:27.317Z,4.63
2023-02-27T10:56:08.045Z,14.73
2023-02-27T10:58:40.702Z,6.57
2023-02-27T11:01:13.586Z,6.60
2023-02-27T11:03:46.061Z,3.33
2023-02-27T11:06:26.968Z,9.48
2023-02-27T11:09:26.644Z,3.15
2023-02-27T11:12:11.268Z,5.68
2023-02-27T11:14:56.564Z,6.70
2023-02-27T11:17:34.483Z,3.63
2023-02-27T11:20:40.795Z,4.57
2023-02-27T11:23:24.592Z,8.77
2023-02-27T11:26:15.581Z,6.55
2023-02-27T11:29:19.010Z,6.40
2023-02-27T11:31:54.741Z,10.20
2023-02-27T11:34:38.046Z,5.50
2023-02-27T11:37:34.333Z,8.40
2023-02-27T11:40:09.603Z,8.73
2023-02-27T11:42:52.102Z,8.35
2023-02-27T11:46:04.587Z,6.50
2023-02-27T11:48:41.925Z,9.02
2023-02-27T11:51:44.653Z,8.10
2023-02-27T11:54:50.999Z,6.07
2023-02-27T11:57:39.036Z,8.27
2023-02-27T12:00:41.433Z,9.73
2023-02-27T12:03:35.828Z,6.22
2023-02-27T12:06:40.050Z,5.25
2023-02-27T12:09:32.704Z,5.75
2023-02-27T12:12:24.893Z,4.93
2023-02-27T12:15:26.587Z,9.52
2023-02-27T12:18:18.806Z,4.32
2023-02-27T12:21:16.129Z,7.28
2023-02-27T12:24:30.100Z,5.93
2023-02-27T12:27:21.224Z,11.63
2023-02-27T12:30:06.310Z,3.00
2023-02-27T12:32:50.516Z,4.13
2023-02-27T12:35:33.235Z,7.13
2023-02-27T12:38:07.427Z,13.27
2023-02-27T12:41:23.361Z,5.45
2023-02-27T12:44:14.205Z,8.52
2023-02-27T12:47:32.959Z,6.95
2023-02-27T12:50:22.110Z,9.10
2023-02-27T12:53:05.754Z,8.55
2023-02-27T12:55:55.311Z,6.40
2023-02-27T12:58:59.981Z,6.68
2023-02-27T13:01:48.408Z,7.05
2023-02-27T13:04:42.767Z,4.85
2023-02-27T13:07:37.562Z,6.43
2023-02-27T13:10:27.051Z,11.23
2023-02-27T13:13:11.635Z,4.03
2023-02-27T13:15:59.642Z,5.03
2023-02-27T13:18:45.819Z,5.32
2023-02-27T13:21:53.110Z,7.45
2023-02-27T13:24:28.523Z,6.75
2023-02-27T13:27:39.219Z,6.85
2023-02-27T13:30:27.487Z,3.35
2023-02-27T13:33:42.513Z,7.30
2023-02-27T13:36:39.584Z,7.07
2023-02-27T13:39:42.442Z,5.28
2023-02-27T13:42:26.910Z,4.82
2023-02-27T13:45:06.398Z,8.02
2023-02-27T13:47:50.060Z,6.97
2023-02-27T13:50:25.974Z,8.35
2023-02-27T13:53:10.850Z,6.30
2023-02-27T13:55:43.022Z,9.20
2023-02-27T13:58:18.505Z,5.18
2023-02-27T14:01:00.192Z,5.63
2023-02-27T14:03:32.846Z,7.18
2023-02-27T14:06:06.954Z,3.13
2023-02-27T14:08:57.561Z,3.95
2023-02-27T14:11:40.025Z,6.13
2023-02-27T14:14:44.417Z,8.20
2023-02-27T14:17:36.949Z,10.63
2023-02-27T14:20:32.079Z,6.00
2023-02-27T14:23:16.254Z,10.50
2023-02-27T14:26:00.230Z,6.95
2023-02-27T14:28:51.872Z,9.57
2023-02-27T14:31:33.108Z,4.57
2023-02-27T14:34:16.223Z,7.07
2023-02-27T14:36:54.194Z,5.35
2023-02-27T14:39:31.438Z,5.57
2023-02-27T14:42:47.174Z,5.40
2023-02-27T14:45:24.554Z,5.35
2023-02-27T14:47:58.357Z,4.25
2023-02-27T14:50:39.346Z,4.32
2023-02-27T14:53:27.268Z,5.13
2023-02-27T14:58:55.476Z,8.05
2023-02-27T15:01:36.076Z,7.75
2023-02-27T15:04:08.836Z,9.32
2023-02-27T15:06:45.475Z,11.93
2023-02-27T15:09:31.195Z,8.02
2023-02-27T15:12:05.043Z,13.68
2023-02-27T15:14:40.177Z,4.95
2023-02-27T15:17:23.015Z,5.15
2023-02-27T15:19:58.699Z,3.50
2023-02-27T15:22:39.519Z,7.00
2023-02-27T15:25:40.038Z,4.22
2023-02-27T15:28:26.416Z,6.90
2023-02-27T15:30:58.767Z,3.30
2023-02-27T15:33:33.020Z,6.32
2023-02-27T15:36:06.221Z,4.78
2023-02-27T15:38:41.116Z,5.75
2023-02-27T15:41:20.769Z,12.65
2023-02-27T15:43:53.914Z,6.30
2023-02-27T15:46:26.890Z,6.25
2023-02-27T15:48:59.850Z,6.18
2023-02-27T15:51:32.054Z,5.63
2023-02-27T15:54:04.687Z,4.68
2023-02-27T15:56:38.721Z,6.47
2023-02-27T15:59:16.212Z,2.75
2023-02-27T16:01:49.932Z,5.97
2023-02-27T16:04:26.640Z,3.90
2023-02-27T16:07:17.220Z,4.53
2023-02-27T16:10:06.794Z,8.80
2023-02-27T16:12:43.064Z,5.57
2023-02-27T16:15:32.961Z,4.13
2023-02-27T16:18:08.615Z,15.75
2023-02-27T16:20:55.798Z,9.13
2023-02-27T16:23:32.945Z,8.75
2023-02-27T16:26:29.423Z,3.58
2023-02-27T16:29:22.943Z,6.18
2023-02-27T16:31:57.692Z,5.35
2023-02-27T16:34:45.502Z,10.80
2023-02-27T16:37:41.217Z,5.85
2023-02-27T16:40:18.447Z,10.40
2023-02-27T16:42:53.848Z,6.70
2023-02-27T16:45:32.425Z,11.80
2023-02-27T16:48:05.885Z,5.78
2023-02-27T16:50:43.130Z,4.95
2023-02-27T16:53:18.033Z,12.50
2023-02-27T16:55:52.807Z,7.45
2023-02-27T16:58:25.980Z,7.10
2023-02-27T17:01:01.154Z,8.40
2023-02-27T17:03:33.442Z,5.93
2023-02-27T17:06:07.943Z,11.15
2023-02-27T17:08:43.044Z,6.80
2023-02-27T17:11:15.048Z,9.55
2023-02-27T17:14:00.437Z,12.30
2023-02-27T17:16:33.475Z,6.30
2023-02-27T17:19:08.942Z,10.93
2023-02-27T17:21:41.837Z,12.57
2023-02-27T17:24:14.942Z,5.00
2023-02-27T17:26:50.479Z,5.80
2023-02-27T17:29:27.831Z,6.72
2023-02-27T17:32:01.722Z,9.05
2023-02-27T17:34:34.009Z,7.82
2023-02-27T17:37:06.791Z,9.32
2023-02-27T17:39:39.569Z,6.38
2023-02-27T17:42:13.095Z,7.30
2023-02-27T17:44:46.644Z,7.78
2023-02-27T17:47:19.005Z,7.32
2023-02-27T17:49:51.028Z,5.47
2023-02-27T17:52:23.202Z,9.95
2023-02-27T17:54:55.869Z,8.23
2023-02-27T17:57:32.356Z,8.18
2023-02-27T18:00:15.392Z,6.78
2023-02-27T18:02:48.399Z,11.48
2023-02-27T18:05:22.082Z,9.55
2023-02-27T18:08:08.940Z,8.15
2023-02-27T18:16:46.360Z,10.90
2023-02-27T18:19:19.018Z,11.50
2023-02-27T18:21:54.664Z,8.07
2023-02-27T18:24:26.993Z,7.85
2023-02-27T18:26:59.019Z,13.40
2023-02-27T18:29:32.618Z,5.32
2023-02-27T18:32:05.941Z,10.75
2023-02-27T18:35:04.851Z,8.70
2023-02-27T18:37:37.056Z,15.23
2023-02-27T18:40:12.050Z,10.93
2023-02-27T18:42:47.838Z,10.95
2023-02-27T18:45:20.455Z,9.57
2023-02-27T18:47:53.127Z,9.82
2023-02-27T18:50:25.643Z,13.38
2023-02-27T18:53:01.060Z,14.18
2023-02-27T18:55:34.492Z,11.60
2023-02-27T18:58:07.062Z,11.57
2023-02-27T19:00:42.666Z,7.97
2023-02-27T19:03:16.619Z,9.85
2023-02-27T19:05:49.872Z,9.20
2023-02-27T19:08:25.131Z,10.10
2023-02-27T19:10:58.884Z,12.13
2023-02-27T19:13:31.392Z,15.90
2023-02-27T19:16:06.966Z,14.15
2023-02-27T19:18:42.266Z,8.93
2023-02-27T19:21:18.792Z,11.48
2023-02-27T19:24:04.575Z,14.13
2023-02-27T19:26:42.406Z,11.20
2023-02-27T19:29:15.185Z,15.10
2023-02-27T19:31:47.387Z,11.75
2023-02-27T19:34:19.541Z,17.58
2023-02-27T19:36:52.034Z,15.05
2023-02-27T19:39:23.982Z,10.75
2023-02-27T19:41:56.766Z,13.82
2023-02-27T19:44:28.791Z,20.30
2023-02-27T19:47:00.921Z,16.38
2023-02-27T19:49:32.984Z,12.30
2023-02-27T19:52:05.376Z,14.25
2023-02-27T19:54:41.104Z,14.50
2023-02-27T19:57:14.377Z,10.93
2023-02-27T19:59:46.878Z,11.15
2023-02-27T20:02:18.873Z,15.57
2023-02-27T20:04:50.937Z,14.10
2023-02-27T20:07:24.041Z,11.23
2023-02-27T20:09:57.366Z,11.45
2023-02-27T20:12:29.420Z,13.85
2023-02-27T20:15:10.328Z,20.67
2023-02-27T20:17:42.418Z,11.88
2023-02-27T20:20:14.605Z,10.82
2023-02-27T20:22:46.793Z,13.60
2023-02-27T20:25:19.214Z,16.23
2023-02-27T20:27:51.451Z,11.82
2023-02-27T20:30:27.448Z,17.35
2023-02-27T20:32:59.976Z,16.38
2023-02-27T20:35:34.425Z,15.32
2023-02-27T20:38:07.022Z,11.73
2023-02-27T20:40:39.006Z,16.35
2023-02-27T20:43:11.081Z,15.00
2023-02-27T20:45:43.198Z,17.25
2023-02-27T20:48:15.478Z,11.25
2023-02-27T20:50:47.872Z,13.40
2023-02-27T20:53:19.855Z,10.95
2023-02-27T20:55:51.841Z,13.20
2023-02-27T20:58:23.904Z,12.43
2023-02-27T21:00:55.959Z,12.15
2023-02-27T21:03:33.545Z,11.57
2023-02-27T21:08:49.302Z,13.25
2023-02-27T21:11:29.786Z,12.18
2023-02-27T21:14:11.748Z,12.60
2023-02-27T21:16:43.782Z,17.42
2023-02-27T21:19:16.706Z,15.88
2023-02-27T21:21:48.914Z,13.07
2023-02-27T21:24:21.606Z,13.48
2023-02-27T21:26:53.667Z,11.85
2023-02-27T21:29:25.841Z,16.88
2023-02-27T21:31:57.838Z,17.63
2023-02-27T21:34:30.217Z,13.10
2023-02-27T21:37:05.941Z,16.90
2023-02-27T21:39:38.562Z,22.05
2023-02-27T21:42:10.528Z,13.73
2023-02-27T21:44:43.925Z,17.35
2023-02-27T21:47:15.938Z,20.70
2023-02-27T21:49:48.016Z,25.52
2023-02-27T21:52:20.199Z,13.15
2023-02-27T21:54:54.261Z,15.85
2023-02-27T21:57:26.270Z,14.57
2023-02-27T21:59:58.327Z,15.20
2023-02-27T22:02:30.466Z,15.55
2023-02-27T22:05:02.927Z,16.90
2023-02-27T22:07:35.111Z,18.00
2023-02-27T22:10:07.534Z,14.55
2023-02-27T22:12:39.538Z,18.75
2023-02-27T22:15:15.019Z,18.70
2023-02-27T22:17:48.042Z,11.25
2023-02-27T22:20:20.500Z,15.52
2023-02-27T22:22:52.565Z,13.75
2023-02-27T22:25:24.589Z,14.00
2023-02-27T22:27:56.566Z,21.55
2023-02-27T22:30:30.129Z,18.45
2023-02-27T22:33:02.315Z,15.35
2023-02-27T22:35:36.730Z,20.13
2023-02-27T22:38:08.784Z,15.48
2023-02-27T22:40:40.749Z,12.15
2023-02-27T22:43:12.757Z,15.25
2023-02-27T22:45:48.764Z,15.25
2023-02-27T22:48:22.692Z,13.40
2023-02-27T22:51:15.780Z,14.63
2023-02-27T22:54:16.774Z,14.98
2023-02-27T22:56:57.969Z,17.05
2023-02-27T22:59:30.107Z,11.25
2023-02-27T23:02:02.165Z,12.43
2023-02-27T23:04:34.361Z,14.65
2023-02-27T23:07:06.295Z,14.05
2023-02-27T23:09:40.722Z,12.52
2023-02-27T23:12:12.835Z,17.75
2023-02-27T23:14:44.846Z,15.95
2023-02-27T23:17:16.969Z,14.90
2023-02-27T23:19:49.904Z,14.85
2023-02-27T23:22:22.089Z,19.23
2023-02-27T23:24:54.169Z,15.88
2023-02-27T23:27:26.634Z,14.32
2023-02-27T23:30:05.220Z,17.77
2023-02-27T23:32:43.658Z,17.92
2023-02-27T23:35:17.337Z,18.08
2023-02-27T23:37:51.869Z,16.85
2023-02-27T23:40:27.152Z,15.02
2023-02-27T23:43:17.512Z,13.48
2023-02-27T23:48:23.344Z,20.05
2023-02-27T23:50:59.622Z,14.32
2023-02-27T23:53:33.600Z,13.98
2023-02-27T23:56:24.529Z,19.05
2023-02-27T23:59:07.524Z,12.82
